sensor_id;sensor_type;location;lat;lon;timestamp;P1;durP1;ratioP1;P2;durP2;ratioP2
11747;SDS011;5931;48.832;9.072;2023-12-29T00:01:34;3.80;;;2.57;;
11747;SDS011;5931;48.832;9.072;2023-12-29T00:04:00;2.83;;;2.03;;
11747;SDS011;5931;48.832;9.072;2023-12-29T00:06:26;2.80;;;2.50;;
11747;SDS011;5931;48.832;9.072;2023-12-29T00:08:51;3.43;;;2.37;;
11747;SDS011;5931;48.832;9.072;2023-12-29T00:11:20;2.40;;;2.17;;
11747;SDS011;5931;48.832;9.072;2023-12-29T00:13:47;2.57;;;2.03;;
11747;SDS011;5931;48.832;9.072;2023-12-29T00:16:13;2.70;;;2.37;;
11747;SDS011;5931;48.832;9.072;2023-12-29T00:18:39;3.63;;;2.30;;
11747;SDS011;5931;48.832;9.072;2023-12-29T00:21:05;5.33;;;3.13;;
11747;SDS011;5931;48.832;9.072;2023-12-29T00:23:31;4.60;;;2.80;;
11747;SDS011;5931;48.832;9.072;2023-12-29T00:25:57;2.93;;;2.50;;
11747;SDS011;5931;48.832;9.072;2023-12-29T00:28:23;2.90;;;2.60;;
11747;SDS011;5931;48.832;9.072;2023-12-29T00:30:49;4.73;;;3.20;;
11747;SDS011;5931;48.832;9.072;2023-12-29T00:33:15;3.90;;;2.50;;
11747;SDS011;5931;48.832;9.072;2023-12-29T00:35:41;5.20;;;3.63;;
11747;SDS011;5931;48.832;9.072;2023-12-29T00:38:07;6.50;;;3.30;;
11747;SDS011;5931;48.832;9.072;2023-12-29T00:40:33;9.03;;;4.23;;
11747;SDS011;5931;48.832;9.072;2023-12-29T00:43:00;5.53;;;3.20;;
11747;SDS011;5931;48.832;9.072;2023-12-29T00:45:26;8.53;;;3.83;;
11747;SDS011;5931;48.832;9.072;2023-12-29T00:47:57;8.00;;;3.10;;
11747;SDS011;5931;48.832;9.072;2023-12-29T00:50:23;6.10;;;3.10;;
11747;SDS011;5931;48.832;9.072;2023-12-29T00:52:49;3.53;;;3.23;;
11747;SDS011;5931;48.832;9.072;2023-12-29T00:55:15;3.30;;;2.43;;
11747;SDS011;5931;48.832;9.072;2023-12-29T00:57:41;6.40;;;2.87;;
11747;SDS011;5931;48.832;9.072;2023-12-29T01:00:07;3.87;;;2.80;;
11747;SDS011;5931;48.832;9.072;2023-12-29T01:02:36;6.37;;;2.87;;
11747;SDS011;5931;48.832;9.072;2023-12-29T01:05:01;6.27;;;3.80;;
11747;SDS011;5931;48.832;9.072;2023-12-29T01:07:27;4.13;;;2.83;;
11747;SDS011;5931;48.832;9.072;2023-12-29T01:09:53;5.97;;;3.17;;
11747;SDS011;5931;48.832;9.072;2023-12-29T01:12:19;5.83;;;2.80;;
11747;SDS011;5931;48.832;9.072;2023-12-29T01:14:44;3.50;;;2.87;;
11747;SDS011;5931;48.832;9.072;2023-12-29T01:17:10;3.53;;;3.10;;
11747;SDS011;5931;48.832;9.072;2023-12-29T01:19:36;3.40;;;2.53;;
11747;SDS011;5931;48.832;9.072;2023-12-29T01:22:02;3.60;;;2.70;;
11747;SDS011;5931;48.832;9.072;2023-12-29T01:24:27;5.87;;;3.07;;
11747;SDS011;5931;48.832;9.072;2023-12-29T01:26:53;4.50;;;3.27;;
11747;SDS011;5931;48.832;9.072;2023-12-29T01:29:19;3.40;;;2.70;;
11747;SDS011;5931;48.832;9.072;2023-12-29T01:31:45;11.23;;;3.00;;
11747;SDS011;5931;48.832;9.072;2023-12-29T01:34:11;3.13;;;2.67;;
11747;SDS011;5931;48.832;9.072;2023-12-29T01:36:37;5.00;;;2.80;;
11747;SDS011;5931;48.832;9.072;2023-12-29T01:39:03;3.37;;;2.67;;
11747;SDS011;5931;48.832;9.072;2023-12-29T01:41:29;5.67;;;3.17;;
11747;SDS011;5931;48.832;9.072;2023-12-29T01:46:31;3.70;;;2.57;;
11747;SDS011;5931;48.832;9.072;2023-12-29T01:48:58;4.47;;;2.50;;
11747;SDS011;5931;48.832;9.072;2023-12-29T01:51:25;3.40;;;2.50;;
11747;SDS011;5931;48.832;9.072;2023-12-29T01:53:54;4.60;;;2.70;;
11747;SDS011;5931;48.832;9.072;2023-12-29T01:56:22;5.10;;;2.87;;
11747;SDS011;5931;48.832;9.072;2023-12-29T01:58:49;3.63;;;2.80;;
11747;SDS011;5931;48.832;9.072;2023-12-29T02:01:16;3.63;;;2.57;;
11747;SDS011;5931;48.832;9.072;2023-12-29T02:03:44;3.27;;;2.70;;
11747;SDS011;5931;48.832;9.072;2023-12-29T02:06:10;3.17;;;2.50;;
11747;SDS011;5931;48.832;9.072;2023-12-29T02:08:37;3.30;;;2.87;;
11747;SDS011;5931;48.832;9.072;2023-12-29T02:11:04;3.97;;;2.93;;
11747;SDS011;5931;48.832;9.072;2023-12-29T02:13:29;3.40;;;2.23;;
11747;SDS011;5931;48.832;9.072;2023-12-29T02:15:56;5.17;;;3.10;;
11747;SDS011;5931;48.832;9.072;2023-12-29T02:18:28;4.77;;;3.20;;
11747;SDS011;5931;48.832;9.072;2023-12-29T02:20:57;3.13;;;2.50;;
11747;SDS011;5931;48.832;9.072;2023-12-29T02:23:23;3.50;;;2.30;;
11747;SDS011;5931;48.832;9.072;2023-12-29T02:25:49;3.50;;;3.00;;
11747;SDS011;5931;48.832;9.072;2023-12-29T02:28:23;3.40;;;3.07;;
11747;SDS011;5931;48.832;9.072;2023-12-29T02:31:01;3.63;;;3.00;;
11747;SDS011;5931;48.832;9.072;2023-12-29T02:33:37;3.47;;;2.57;;
11747;SDS011;5931;48.832;9.072;2023-12-29T02:36:05;4.00;;;3.00;;
11747;SDS011;5931;48.832;9.072;2023-12-29T02:38:32;3.80;;;2.93;;
11747;SDS011;5931;48.832;9.072;2023-12-29T02:40:59;5.57;;;2.70;;
11747;SDS011;5931;48.832;9.072;2023-12-29T02:43:25;3.50;;;3.00;;
11747;SDS011;5931;48.832;9.072;2023-12-29T02:45:51;3.80;;;2.97;;
11747;SDS011;5931;48.832;9.072;2023-12-29T02:48:18;5.77;;;3.20;;
11747;SDS011;5931;48.832;9.072;2023-12-29T02:50:45;4.77;;;3.40;;
11747;SDS011;5931;48.832;9.072;2023-12-29T02:53:10;3.70;;;2.40;;
11747;SDS011;5931;48.832;9.072;2023-12-29T02:55:36;4.37;;;3.50;;
11747;SDS011;5931;48.832;9.072;2023-12-29T02:58:02;3.97;;;3.10;;
11747;SDS011;5931;48.832;9.072;2023-12-29T03:00:28;4.63;;;3.10;;
11747;SDS011;5931;48.832;9.072;2023-12-29T03:02:54;6.27;;;3.23;;
11747;SDS011;5931;48.832;9.072;2023-12-29T03:05:20;3.40;;;2.90;;
11747;SDS011;5931;48.832;9.072;2023-12-29T03:07:46;3.83;;;2.83;;
11747;SDS011;5931;48.832;9.072;2023-12-29T03:10:12;5.57;;;3.33;;
11747;SDS011;5931;48.832;9.072;2023-12-29T03:12:38;5.13;;;3.03;;
11747;SDS011;5931;48.832;9.072;2023-12-29T03:15:04;3.10;;;2.80;;
11747;SDS011;5931;48.832;9.072;2023-12-29T03:17:30;4.53;;;3.50;;
11747;SDS011;5931;48.832;9.072;2023-12-29T03:19:55;4.67;;;3.30;;
11747;SDS011;5931;48.832;9.072;2023-12-29T03:22:21;3.93;;;3.57;;
11747;SDS011;5931;48.832;9.072;2023-12-29T03:24:47;5.13;;;3.00;;
11747;SDS011;5931;48.832;9.072;2023-12-29T03:27:13;3.50;;;3.20;;
11747;SDS011;5931;48.832;9.072;2023-12-29T03:29:39;4.63;;;3.00;;
11747;SDS011;5931;48.832;9.072;2023-12-29T03:32:05;4.33;;;2.93;;
11747;SDS011;5931;48.832;9.072;2023-12-29T03:34:32;3.63;;;2.63;;
11747;SDS011;5931;48.832;9.072;2023-12-29T03:36:58;3.60;;;2.97;;
11747;SDS011;5931;48.832;9.072;2023-12-29T03:39:24;3.43;;;3.10;;
11747;SDS011;5931;48.832;9.072;2023-12-29T03:41:50;6.80;;;3.90;;
11747;SDS011;5931;48.832;9.072;2023-12-29T03:44:15;4.73;;;3.20;;
11747;SDS011;5931;48.832;9.072;2023-12-29T03:46:43;5.33;;;2.87;;
11747;SDS011;5931;48.832;9.072;2023-12-29T03:49:09;5.10;;;3.17;;
11747;SDS011;5931;48.832;9.072;2023-12-29T03:51:35;3.50;;;2.70;;
11747;SDS011;5931;48.832;9.072;2023-12-29T03:54:01;3.80;;;2.60;;
11747;SDS011;5931;48.832;9.072;2023-12-29T03:56:27;4.97;;;3.30;;
11747;SDS011;5931;48.832;9.072;2023-12-29T03:58:52;3.83;;;3.30;;
11747;SDS011;5931;48.832;9.072;2023-12-29T04:01:18;8.70;;;4.03;;
11747;SDS011;5931;48.832;9.072;2023-12-29T04:03:45;3.80;;;2.90;;
11747;SDS011;5931;48.832;9.072;2023-12-29T04:06:11;4.30;;;3.30;;
11747;SDS011;5931;48.832;9.072;2023-12-29T04:08:37;3.57;;;2.60;;
11747;SDS011;5931;48.832;9.072;2023-12-29T04:11:04;3.43;;;2.97;;
11747;SDS011;5931;48.832;9.072;2023-12-29T04:13:30;5.23;;;2.43;;
11747;SDS011;5931;48.832;9.072;2023-12-29T04:15:56;2.60;;;2.37;;
11747;SDS011;5931;48.832;9.072;2023-12-29T04:18:22;4.33;;;3.33;;
11747;SDS011;5931;48.832;9.072;2023-12-29T04:20:49;3.40;;;2.67;;
11747;SDS011;5931;48.832;9.072;2023-12-29T04:23:15;4.80;;;2.83;;
11747;SDS011;5931;48.832;9.072;2023-12-29T04:25:41;6.10;;;3.07;;
11747;SDS011;5931;48.832;9.072;2023-12-29T04:28:07;5.30;;;2.57;;
11747;SDS011;5931;48.832;9.072;2023-12-29T04:30:33;3.60;;;2.80;;
11747;SDS011;5931;48.832;9.072;2023-12-29T04:32:59;3.50;;;2.40;;
11747;SDS011;5931;48.832;9.072;2023-12-29T04:35:25;3.33;;;3.03;;
11747;SDS011;5931;48.832;9.072;2023-12-29T04:37:51;6.27;;;2.73;;
11747;SDS011;5931;48.832;9.072;2023-12-29T04:40:17;4.00;;;2.80;;
11747;SDS011;5931;48.832;9.072;2023-12-29T04:42:43;3.67;;;2.50;;
11747;SDS011;5931;48.832;9.072;2023-12-29T04:45:09;5.20;;;3.50;;
11747;SDS011;5931;48.832;9.072;2023-12-29T04:47:35;3.30;;;2.80;;
11747;SDS011;5931;48.832;9.072;2023-12-29T04:50:02;3.70;;;2.80;;
11747;SDS011;5931;48.832;9.072;2023-12-29T04:52:28;3.63;;;2.80;;
11747;SDS011;5931;48.832;9.072;2023-12-29T04:54:54;3.83;;;2.83;;
11747;SDS011;5931;48.832;9.072;2023-12-29T04:57:20;5.17;;;3.00;;
11747;SDS011;5931;48.832;9.072;2023-12-29T04:59:46;4.07;;;2.80;;
11747;SDS011;5931;48.832;9.072;2023-12-29T05:02:11;5.63;;;3.13;;
11747;SDS011;5931;48.832;9.072;2023-12-29T05:04:37;5.07;;;3.00;;
11747;SDS011;5931;48.832;9.072;2023-12-29T05:07:05;4.40;;;3.13;;
11747;SDS011;5931;48.832;9.072;2023-12-29T05:09:33;3.30;;;2.60;;
11747;SDS011;5931;48.832;9.072;2023-12-29T05:11:58;4.93;;;3.07;;
11747;SDS011;5931;48.832;9.072;2023-12-29T05:14:24;4.03;;;2.10;;
11747;SDS011;5931;48.832;9.072;2023-12-29T05:16:50;2.50;;;2.30;;
11747;SDS011;5931;48.832;9.072;2023-12-29T05:19:16;4.70;;;2.17;;
11747;SDS011;5931;48.832;9.072;2023-12-29T05:21:41;2.73;;;2.53;;
11747;SDS011;5931;48.832;9.072;2023-12-29T05:24:07;3.57;;;2.53;;
11747;SDS011;5931;48.832;9.072;2023-12-29T05:26:33;3.07;;;2.60;;
11747;SDS011;5931;48.832;9.072;2023-12-29T05:28:59;3.57;;;2.70;;
11747;SDS011;5931;48.832;9.072;2023-12-29T05:31:25;3.33;;;2.40;;
11747;SDS011;5931;48.832;9.072;2023-12-29T05:33:51;4.93;;;2.97;;
11747;SDS011;5931;48.832;9.072;2023-12-29T05:36:17;3.17;;;2.77;;
11747;SDS011;5931;48.832;9.072;2023-12-29T05:38:44;3.70;;;2.40;;
11747;SDS011;5931;48.832;9.072;2023-12-29T05:41:15;5.33;;;2.57;;
11747;SDS011;5931;48.832;9.072;2023-12-29T05:43:41;4.33;;;2.70;;
11747;SDS011;5931;48.832;9.072;2023-12-29T05:46:10;3.13;;;2.43;;
11747;SDS011;5931;48.832;9.072;2023-12-29T05:48:37;3.60;;;2.90;;
11747;SDS011;5931;48.832;9.072;2023-12-29T05:51:07;4.50;;;3.23;;
11747;SDS011;5931;48.832;9.072;2023-12-29T05:53:34;4.00;;;2.70;;
11747;SDS011;5931;48.832;9.072;2023-12-29T05:56:00;4.10;;;3.10;;
11747;SDS011;5931;48.832;9.072;2023-12-29T05:58:26;3.57;;;2.93;;
11747;SDS011;5931;48.832;9.072;2023-12-29T06:00:54;3.47;;;2.70;;
11747;SDS011;5931;48.832;9.072;2023-12-29T06:03:20;4.03;;;3.13;;
11747;SDS011;5931;48.832;9.072;2023-12-29T06:05:46;3.90;;;2.90;;
11747;SDS011;5931;48.832;9.072;2023-12-29T06:08:11;4.93;;;3.17;;
11747;SDS011;5931;48.832;9.072;2023-12-29T06:10:37;4.33;;;2.83;;
11747;SDS011;5931;48.832;9.072;2023-12-29T06:13:03;3.83;;;2.90;;
11747;SDS011;5931;48.832;9.072;2023-12-29T06:15:30;3.60;;;2.80;;
11747;SDS011;5931;48.832;9.072;2023-12-29T06:17:56;5.80;;;2.60;;
11747;SDS011;5931;48.832;9.072;2023-12-29T06:20:22;3.53;;;2.90;;
11747;SDS011;5931;48.832;9.072;2023-12-29T06:22:48;6.30;;;3.67;;
11747;SDS011;5931;48.832;9.072;2023-12-29T06:25:14;3.50;;;3.13;;
11747;SDS011;5931;48.832;9.072;2023-12-29T06:27:40;5.83;;;3.60;;
11747;SDS011;5931;48.832;9.072;2023-12-29T06:30:06;4.53;;;3.10;;
11747;SDS011;5931;48.832;9.072;2023-12-29T06:32:33;4.47;;;3.33;;
11747;SDS011;5931;48.832;9.072;2023-12-29T06:34:59;4.90;;;3.00;;
11747;SDS011;5931;48.832;9.072;2023-12-29T06:37:25;6.00;;;3.43;;
11747;SDS011;5931;48.832;9.072;2023-12-29T06:39:51;4.97;;;3.10;;
11747;SDS011;5931;48.832;9.072;2023-12-29T06:42:17;5.10;;;3.60;;
11747;SDS011;5931;48.832;9.072;2023-12-29T06:44:43;3.97;;;3.40;;
11747;SDS011;5931;48.832;9.072;2023-12-29T06:47:09;5.80;;;2.70;;
11747;SDS011;5931;48.832;9.072;2023-12-29T06:49:36;4.70;;;2.80;;
11747;SDS011;5931;48.832;9.072;2023-12-29T06:52:02;4.10;;;3.30;;
11747;SDS011;5931;48.832;9.072;2023-12-29T06:54:28;5.33;;;3.27;;
11747;SDS011;5931;48.832;9.072;2023-12-29T06:56:53;5.40;;;3.30;;
11747;SDS011;5931;48.832;9.072;2023-12-29T06:59:19;3.03;;;2.70;;
11747;SDS011;5931;48.832;9.072;2023-12-29T07:01:46;5.47;;;3.33;;
11747;SDS011;5931;48.832;9.072;2023-12-29T07:04:12;4.50;;;3.10;;
11747;SDS011;5931;48.832;9.072;2023-12-29T07:06:39;9.43;;;2.93;;
11747;SDS011;5931;48.832;9.072;2023-12-29T07:09:05;3.37;;;2.50;;
11747;SDS011;5931;48.832;9.072;2023-12-29T07:11:31;4.77;;;3.23;;
11747;SDS011;5931;48.832;9.072;2023-12-29T07:13:56;5.13;;;2.87;;
11747;SDS011;5931;48.832;9.072;2023-12-29T07:16:22;4.30;;;3.20;;
11747;SDS011;5931;48.832;9.072;2023-12-29T07:18:48;4.00;;;2.50;;
11747;SDS011;5931;48.832;9.072;2023-12-29T07:21:14;4.17;;;3.00;;
11747;SDS011;5931;48.832;9.072;2023-12-29T07:23:41;5.53;;;2.70;;
11747;SDS011;5931;48.832;9.072;2023-12-29T07:26:07;3.17;;;2.77;;
11747;SDS011;5931;48.832;9.072;2023-12-29T07:28:33;7.73;;;2.63;;
11747;SDS011;5931;48.832;9.072;2023-12-29T07:30:59;4.30;;;2.43;;
11747;SDS011;5931;48.832;9.072;2023-12-29T07:33:26;3.67;;;2.47;;
11747;SDS011;5931;48.832;9.072;2023-12-29T07:35:52;4.27;;;2.63;;
11747;SDS011;5931;48.832;9.072;2023-12-29T07:38:18;3.40;;;2.80;;
11747;SDS011;5931;48.832;9.072;2023-12-29T07:40:43;2.97;;;2.40;;
11747;SDS011;5931;48.832;9.072;2023-12-29T07:43:09;3.90;;;2.47;;
11747;SDS011;5931;48.832;9.072;2023-12-29T07:45:35;2.80;;;2.43;;
11747;SDS011;5931;48.832;9.072;2023-12-29T07:48:02;2.37;;;2.10;;
11747;SDS011;5931;48.832;9.072;2023-12-29T07:50:29;2.87;;;2.20;;
11747;SDS011;5931;48.832;9.072;2023-12-29T07:52:55;2.37;;;2.00;;
11747;SDS011;5931;48.832;9.072;2023-12-29T07:55:21;2.93;;;2.10;;
11747;SDS011;5931;48.832;9.072;2023-12-29T07:57:46;3.70;;;2.40;;
11747;SDS011;5931;48.832;9.072;2023-12-29T08:00:14;3.80;;;2.20;;
11747;SDS011;5931;48.832;9.072;2023-12-29T08:02:40;2.60;;;2.30;;
11747;SDS011;5931;48.832;9.072;2023-12-29T08:05:06;2.17;;;1.80;;
11747;SDS011;5931;48.832;9.072;2023-12-29T08:07:35;2.50;;;2.13;;
11747;SDS011;5931;48.832;9.072;2023-12-29T08:10:04;2.27;;;1.80;;
11747;SDS011;5931;48.832;9.072;2023-12-29T08:12:32;2.90;;;2.13;;
11747;SDS011;5931;48.832;9.072;2023-12-29T08:15:01;2.67;;;2.30;;
11747;SDS011;5931;48.832;9.072;2023-12-29T08:17:29;4.83;;;2.17;;
11747;SDS011;5931;48.832;9.072;2023-12-29T08:19:56;3.10;;;2.10;;
11747;SDS011;5931;48.832;9.072;2023-12-29T08:22:22;3.43;;;2.30;;
11747;SDS011;5931;48.832;9.072;2023-12-29T08:24:47;2.53;;;1.93;;
11747;SDS011;5931;48.832;9.072;2023-12-29T08:27:13;3.83;;;2.23;;
11747;SDS011;5931;48.832;9.072;2023-12-29T08:29:40;3.57;;;2.40;;
11747;SDS011;5931;48.832;9.072;2023-12-29T08:32:06;2.70;;;2.07;;
11747;SDS011;5931;48.832;9.072;2023-12-29T08:34:33;3.17;;;2.57;;
11747;SDS011;5931;48.832;9.072;2023-12-29T08:37:03;2.57;;;2.13;;
11747;SDS011;5931;48.832;9.072;2023-12-29T08:39:29;3.60;;;2.00;;
11747;SDS011;5931;48.832;9.072;2023-12-29T08:41:55;3.10;;;2.33;;
11747;SDS011;5931;48.832;9.072;2023-12-29T08:44:21;3.70;;;2.53;;
11747;SDS011;5931;48.832;9.072;2023-12-29T08:46:46;2.40;;;2.20;;
11747;SDS011;5931;48.832;9.072;2023-12-29T08:49:12;3.67;;;2.13;;
11747;SDS011;5931;48.832;9.072;2023-12-29T08:51:38;2.57;;;2.20;;
11747;SDS011;5931;48.832;9.072;2023-12-29T08:54:04;3.13;;;2.00;;
11747;SDS011;5931;48.832;9.072;2023-12-29T08:56:31;2.57;;;2.07;;
11747;SDS011;5931;48.832;9.072;2023-12-29T08:58:56;3.33;;;2.63;;
11747;SDS011;5931;48.832;9.072;2023-12-29T09:01:22;3.20;;;2.63;;
11747;SDS011;5931;48.832;9.072;2023-12-29T09:03:48;3.03;;;2.13;;
11747;SDS011;5931;48.832;9.072;2023-12-29T09:06:14;3.03;;;2.37;;
11747;SDS011;5931;48.832;9.072;2023-12-29T09:08:40;3.70;;;2.40;;
11747;SDS011;5931;48.832;9.072;2023-12-29T09:11:06;3.90;;;2.93;;
11747;SDS011;5931;48.832;9.072;2023-12-29T09:13:32;2.57;;;2.27;;
11747;SDS011;5931;48.832;9.072;2023-12-29T09:15:58;4.33;;;2.30;;
11747;SDS011;5931;48.832;9.072;2023-12-29T09:18:24;2.60;;;1.87;;
11747;SDS011;5931;48.832;9.072;2023-12-29T09:20:50;4.00;;;2.47;;
11747;SDS011;5931;48.832;9.072;2023-12-29T09:23:16;2.90;;;2.30;;
11747;SDS011;5931;48.832;9.072;2023-12-29T09:25:42;3.60;;;2.80;;
11747;SDS011;5931;48.832;9.072;2023-12-29T09:28:08;3.70;;;2.40;;
11747;SDS011;5931;48.832;9.072;2023-12-29T09:30:34;2.30;;;1.83;;
11747;SDS011;5931;48.832;9.072;2023-12-29T09:33:00;3.37;;;2.20;;
11747;SDS011;5931;48.832;9.072;2023-12-29T09:35:26;2.63;;;1.83;;
11747;SDS011;5931;48.832;9.072;2023-12-29T09:37:52;3.60;;;2.53;;
11747;SDS011;5931;48.832;9.072;2023-12-29T09:40:18;2.70;;;2.10;;
11747;SDS011;5931;48.832;9.072;2023-12-29T09:42:43;3.07;;;2.13;;
11747;SDS011;5931;48.832;9.072;2023-12-29T09:45:10;2.57;;;1.80;;
11747;SDS011;5931;48.832;9.072;2023-12-29T09:47:38;2.90;;;2.03;;
11747;SDS011;5931;48.832;9.072;2023-12-29T09:50:09;4.00;;;1.90;;
11747;SDS011;5931;48.832;9.072;2023-12-29T09:52:39;3.33;;;2.07;;
11747;SDS011;5931;48.832;9.072;2023-12-29T09:55:07;2.50;;;2.00;;
11747;SDS011;5931;48.832;9.072;2023-12-29T09:57:37;3.47;;;1.80;;
11747;SDS011;5931;48.832;9.072;2023-12-29T10:00:03;2.13;;;1.70;;
11747;SDS011;5931;48.832;9.072;2023-12-29T10:02:36;2.03;;;1.70;;
11747;SDS011;5931;48.832;9.072;2023-12-29T10:05:02;1.60;;;1.50;;
11747;SDS011;5931;48.832;9.072;2023-12-29T10:07:31;2.13;;;1.53;;
11747;SDS011;5931;48.832;9.072;2023-12-29T10:10:01;2.07;;;1.87;;
11747;SDS011;5931;48.832;9.072;2023-12-29T10:12:28;2.27;;;1.73;;
11747;SDS011;5931;48.832;9.072;2023-12-29T10:17:41;2.90;;;1.60;;
11747;SDS011;5931;48.832;9.072;2023-12-29T10:23:03;1.87;;;1.60;;
11747;SDS011;5931;48.832;9.072;2023-12-29T10:25:33;2.63;;;1.97;;
11747;SDS011;5931;48.832;9.072;2023-12-29T10:27:59;2.77;;;1.70;;
11747;SDS011;5931;48.832;9.072;2023-12-29T10:30:25;2.30;;;1.93;;
11747;SDS011;5931;48.832;9.072;2023-12-29T10:32:52;2.07;;;1.83;;
11747;SDS011;5931;48.832;9.072;2023-12-29T10:35:18;2.27;;;1.77;;
11747;SDS011;5931;48.832;9.072;2023-12-29T10:37:44;2.00;;;1.50;;
11747;SDS011;5931;48.832;9.072;2023-12-29T10:40:16;1.67;;;1.50;;
11747;SDS011;5931;48.832;9.072;2023-12-29T10:42:53;2.30;;;2.00;;
11747;SDS011;5931;48.832;9.072;2023-12-29T10:45:19;2.37;;;1.83;;
11747;SDS011;5931;48.832;9.072;2023-12-29T10:47:46;1.93;;;1.30;;
11747;SDS011;5931;48.832;9.072;2023-12-29T10:50:12;1.87;;;1.57;;
11747;SDS011;5931;48.832;9.072;2023-12-29T10:52:38;2.30;;;1.60;;
11747;SDS011;5931;48.832;9.072;2023-12-29T10:55:06;2.27;;;1.60;;
11747;SDS011;5931;48.832;9.072;2023-12-29T10:57:36;2.00;;;1.80;;
11747;SDS011;5931;48.832;9.072;2023-12-29T11:00:03;1.80;;;1.60;;
11747;SDS011;5931;48.832;9.072;2023-12-29T11:02:31;1.40;;;1.17;;
11747;SDS011;5931;48.832;9.072;2023-12-29T11:05:04;1.63;;;1.40;;
11747;SDS011;5931;48.832;9.072;2023-12-29T11:07:38;1.80;;;1.37;;
11747;SDS011;5931;48.832;9.072;2023-12-29T11:10:05;1.83;;;1.40;;
11747;SDS011;5931;48.832;9.072;2023-12-29T11:12:33;1.63;;;1.37;;
11747;SDS011;5931;48.832;9.072;2023-12-29T11:15:06;1.73;;;1.60;;
11747;SDS011;5931;48.832;9.072;2023-12-29T11:17:36;3.00;;;1.53;;
11747;SDS011;5931;48.832;9.072;2023-12-29T11:20:03;3.33;;;1.50;;
11747;SDS011;5931;48.832;9.072;2023-12-29T11:22:30;1.70;;;1.23;;
11747;SDS011;5931;48.832;9.072;2023-12-29T11:24:57;2.13;;;1.43;;
11747;SDS011;5931;48.832;9.072;2023-12-29T11:27:29;3.57;;;1.10;;
11747;SDS011;5931;48.832;9.072;2023-12-29T11:29:57;2.17;;;1.60;;
11747;SDS011;5931;48.832;9.072;2023-12-29T11:32:26;1.50;;;1.40;;
11747;SDS011;5931;48.832;9.072;2023-12-29T11:35:02;1.50;;;1.20;;
11747;SDS011;5931;48.832;9.072;2023-12-29T11:42:53;1.30;;;1.20;;
11747;SDS011;5931;48.832;9.072;2023-12-29T11:45:28;1.90;;;1.40;;
11747;SDS011;5931;48.832;9.072;2023-12-29T11:47:56;3.60;;;1.60;;
11747;SDS011;5931;48.832;9.072;2023-12-29T11:50:32;2.13;;;1.60;;
11747;SDS011;5931;48.832;9.072;2023-12-29T11:53:07;1.30;;;1.17;;
11747;SDS011;5931;48.832;9.072;2023-12-29T11:55:37;1.70;;;1.43;;
11747;SDS011;5931;48.832;9.072;2023-12-29T11:58:04;1.20;;;1.00;;
11747;SDS011;5931;48.832;9.072;2023-12-29T12:00:48;1.50;;;1.20;;
11747;SDS011;5931;48.832;9.072;2023-12-29T12:03:15;2.20;;;1.43;;
11747;SDS011;5931;48.832;9.072;2023-12-29T12:05:51;1.53;;;1.20;;
11747;SDS011;5931;48.832;9.072;2023-12-29T12:08:34;2.60;;;1.30;;
11747;SDS011;5931;48.832;9.072;2023-12-29T12:13:54;3.93;;;1.50;;
11747;SDS011;5931;48.832;9.072;2023-12-29T12:19:19;2.70;;;1.53;;
11747;SDS011;5931;48.832;9.072;2023-12-29T12:21:46;1.43;;;1.20;;
11747;SDS011;5931;48.832;9.072;2023-12-29T12:24:14;1.63;;;1.30;;
11747;SDS011;5931;48.832;9.072;2023-12-29T12:26:40;1.90;;;1.20;;
11747;SDS011;5931;48.832;9.072;2023-12-29T12:29:06;1.70;;;1.20;;
11747;SDS011;5931;48.832;9.072;2023-12-29T12:31:32;1.60;;;1.20;;
11747;SDS011;5931;48.832;9.072;2023-12-29T12:33:58;1.70;;;1.43;;
11747;SDS011;5931;48.832;9.072;2023-12-29T12:36:28;1.30;;;1.17;;
11747;SDS011;5931;48.832;9.072;2023-12-29T12:38:55;1.37;;;1.17;;
11747;SDS011;5931;48.832;9.072;2023-12-29T12:41:22;1.70;;;1.37;;
11747;SDS011;5931;48.832;9.072;2023-12-29T12:46:34;2.37;;;1.53;;
11747;SDS011;5931;48.832;9.072;2023-12-29T12:49:03;2.77;;;1.70;;
11747;SDS011;5931;48.832;9.072;2023-12-29T12:51:30;2.00;;;1.40;;
11747;SDS011;5931;48.832;9.072;2023-12-29T12:53:59;3.27;;;1.57;;
11747;SDS011;5931;48.832;9.072;2023-12-29T12:56:26;1.60;;;1.40;;
11747;SDS011;5931;48.832;9.072;2023-12-29T12:58:56;1.50;;;1.20;;
11747;SDS011;5931;48.832;9.072;2023-12-29T13:01:23;1.93;;;1.30;;
11747;SDS011;5931;48.832;9.072;2023-12-29T13:03:50;2.27;;;1.60;;
11747;SDS011;5931;48.832;9.072;2023-12-29T13:06:17;2.07;;;1.40;;
11747;SDS011;5931;48.832;9.072;2023-12-29T13:08:43;1.60;;;1.20;;
11747;SDS011;5931;48.832;9.072;2023-12-29T13:11:10;2.40;;;1.80;;
11747;SDS011;5931;48.832;9.072;2023-12-29T13:13:42;1.77;;;1.50;;
11747;SDS011;5931;48.832;9.072;2023-12-29T13:16:08;3.83;;;2.07;;
11747;SDS011;5931;48.832;9.072;2023-12-29T13:18:34;2.83;;;2.13;;
11747;SDS011;5931;48.832;9.072;2023-12-29T13:21:03;2.23;;;1.53;;
11747;SDS011;5931;48.832;9.072;2023-12-29T13:23:29;4.30;;;2.60;;
11747;SDS011;5931;48.832;9.072;2023-12-29T13:26:08;1.60;;;1.40;;
11747;SDS011;5931;48.832;9.072;2023-12-29T13:28:35;1.90;;;1.50;;
11747;SDS011;5931;48.832;9.072;2023-12-29T13:31:02;2.70;;;1.70;;
11747;SDS011;5931;48.832;9.072;2023-12-29T13:33:31;1.53;;;1.30;;
11747;SDS011;5931;48.832;9.072;2023-12-29T13:36:13;2.60;;;1.50;;
11747;SDS011;5931;48.832;9.072;2023-12-29T13:38:52;1.83;;;1.27;;
11747;SDS011;5931;48.832;9.072;2023-12-29T13:41:22;1.50;;;1.20;;
11747;SDS011;5931;48.832;9.072;2023-12-29T13:43:50;2.30;;;1.60;;
11747;SDS011;5931;48.832;9.072;2023-12-29T13:46:17;1.87;;;1.67;;
11747;SDS011;5931;48.832;9.072;2023-12-29T13:48:43;2.13;;;1.40;;
11747;SDS011;5931;48.832;9.072;2023-12-29T13:51:10;1.57;;;1.23;;
11747;SDS011;5931;48.832;9.072;2023-12-29T13:53:37;2.23;;;1.40;;
11747;SDS011;5931;48.832;9.072;2023-12-29T13:56:09;2.07;;;1.57;;
11747;SDS011;5931;48.832;9.072;2023-12-29T13:58:36;1.80;;;1.30;;
11747;SDS011;5931;48.832;9.072;2023-12-29T14:01:03;3.63;;;1.60;;
11747;SDS011;5931;48.832;9.072;2023-12-29T14:03:54;3.00;;;1.37;;
11747;SDS011;5931;48.832;9.072;2023-12-29T14:06:31;1.90;;;1.70;;
11747;SDS011;5931;48.832;9.072;2023-12-29T14:09:03;2.40;;;1.40;;
11747;SDS011;5931;48.832;9.072;2023-12-29T14:11:29;2.90;;;1.37;;
11747;SDS011;5931;48.832;9.072;2023-12-29T14:13:56;1.23;;;1.13;;
11747;SDS011;5931;48.832;9.072;2023-12-29T14:16:22;1.90;;;1.50;;
11747;SDS011;5931;48.832;9.072;2023-12-29T14:18:57;2.03;;;1.50;;
11747;SDS011;5931;48.832;9.072;2023-12-29T14:21:26;1.87;;;1.67;;
11747;SDS011;5931;48.832;9.072;2023-12-29T14:24:06;2.10;;;1.40;;
11747;SDS011;5931;48.832;9.072;2023-12-29T14:26:33;1.90;;;1.60;;
11747;SDS011;5931;48.832;9.072;2023-12-29T14:29:03;1.80;;;1.57;;
11747;SDS011;5931;48.832;9.072;2023-12-29T14:31:34;1.83;;;1.30;;
11747;SDS011;5931;48.832;9.072;2023-12-29T14:34:02;2.47;;;1.60;;
11747;SDS011;5931;48.832;9.072;2023-12-29T14:36:29;2.00;;;1.60;;
11747;SDS011;5931;48.832;9.072;2023-12-29T14:38:55;2.50;;;1.57;;
11747;SDS011;5931;48.832;9.072;2023-12-29T14:41:21;1.50;;;1.20;;
11747;SDS011;5931;48.832;9.072;2023-12-29T14:43:47;2.60;;;2.00;;
11747;SDS011;5931;48.832;9.072;2023-12-29T14:46:13;2.10;;;1.87;;
11747;SDS011;5931;48.832;9.072;2023-12-29T14:48:38;3.07;;;1.37;;
11747;SDS011;5931;48.832;9.072;2023-12-29T14:51:04;1.70;;;1.60;;
11747;SDS011;5931;48.832;9.072;2023-12-29T14:53:30;1.83;;;1.50;;
11747;SDS011;5931;48.832;9.072;2023-12-29T14:55:56;2.23;;;1.30;;
11747;SDS011;5931;48.832;9.072;2023-12-29T14:58:21;15.93;;;1.73;;
11747;SDS011;5931;48.832;9.072;2023-12-29T15:00:47;3.10;;;1.40;;
11747;SDS011;5931;48.832;9.072;2023-12-29T15:03:13;3.43;;;1.37;;
11747;SDS011;5931;48.832;9.072;2023-12-29T15:05:45;4.90;;;1.50;;
11747;SDS011;5931;48.832;9.072;2023-12-29T15:08:11;1.47;;;1.23;;
11747;SDS011;5931;48.832;9.072;2023-12-29T15:10:37;1.50;;;1.40;;
11747;SDS011;5931;48.832;9.072;2023-12-29T15:13:03;1.80;;;1.30;;
11747;SDS011;5931;48.832;9.072;2023-12-29T15:15:31;1.70;;;1.30;;
11747;SDS011;5931;48.832;9.072;2023-12-29T15:17:58;3.40;;;1.93;;
11747;SDS011;5931;48.832;9.072;2023-12-29T15:20:24;1.50;;;1.40;;
11747;SDS011;5931;48.832;9.072;2023-12-29T15:22:50;1.50;;;1.40;;